sensor_id;sensor_type;location;lat;lon;timestamp;P1;durP1;ratioP1;P2;durP2;ratioP2
23561;SDS011;11959;49.418;8.728;2024-02-21T00:00:57;17.17;;;4.65;;
23561;SDS011;11959;49.418;8.728;2024-02-21T00:03:23;14.57;;;5.60;;
23561;SDS011;11959;49.418;8.728;2024-02-21T00:05:49;11.32;;;4.57;;
23561;SDS011;11959;49.418;8.728;2024-02-21T00:08:14;12.57;;;4.78;;
23561;SDS011;11959;49.418;8.728;2024-02-21T00:10:40;12.77;;;5.10;;
23561;SDS011;11959;49.418;8.728;2024-02-21T00:13:05;12.55;;;4.72;;
23561;SDS011;11959;49.418;8.728;2024-02-21T00:15:31;14.52;;;5.15;;
23561;SDS011;11959;49.418;8.728;2024-02-21T00:17:57;12.95;;;4.72;;
23561;SDS011;11959;49.418;8.728;2024-02-21T00:20:22;11.95;;;4.72;;
23561;SDS011;11959;49.418;8.728;2024-02-21T00:22:50;11.50;;;4.85;;
23561;SDS011;11959;49.418;8.728;2024-02-21T00:25:16;13.38;;;4.47;;
23561;SDS011;11959;49.418;8.728;2024-02-21T00:27:41;13.57;;;5.43;;
23561;SDS011;11959;49.418;8.728;2024-02-21T00:30:07;8.57;;;4.55;;
23561;SDS011;11959;49.418;8.728;2024-02-21T00:32:33;12.38;;;4.68;;
23561;SDS011;11959;49.418;8.728;2024-02-21T00:34:59;10.05;;;4.90;;
23561;SDS011;11959;49.418;8.728;2024-02-21T00:37:26;14.05;;;4.63;;
23561;SDS011;11959;49.418;8.728;2024-02-21T00:39:52;10.88;;;4.63;;
23561;SDS011;11959;49.418;8.728;2024-02-21T00:42:21;13.00;;;4.97;;
23561;SDS011;11959;49.418;8.728;2024-02-21T00:44:47;12.90;;;4.50;;
23561;SDS011;11959;49.418;8.728;2024-02-21T00:47:12;11.98;;;4.95;;
23561;SDS011;11959;49.418;8.728;2024-02-21T00:49:38;12.70;;;4.78;;
23561;SDS011;11959;49.418;8.728;2024-02-21T00:52:04;13.02;;;4.80;;
23561;SDS011;11959;49.418;8.728;2024-02-21T00:54:29;13.55;;;5.05;;
23561;SDS011;11959;49.418;8.728;2024-02-21T00:56:55;8.85;;;4.03;;
23561;SDS011;11959;49.418;8.728;2024-02-21T00:59:21;12.75;;;5.00;;
23561;SDS011;11959;49.418;8.728;2024-02-21T01:01:46;13.27;;;4.80;;
23561;SDS011;11959;49.418;8.728;2024-02-21T01:04:12;13.82;;;4.95;;
23561;SDS011;11959;49.418;8.728;2024-02-21T01:06:38;14.43;;;4.93;;
23561;SDS011;11959;49.418;8.728;2024-02-21T01:09:03;12.68;;;4.60;;
23561;SDS011;11959;49.418;8.728;2024-02-21T01:11:29;10.27;;;4.47;;
23561;SDS011;11959;49.418;8.728;2024-02-21T01:13:55;13.10;;;4.80;;
23561;SDS011;11959;49.418;8.728;2024-02-21T01:16:21;11.85;;;4.45;;
23561;SDS011;11959;49.418;8.728;2024-02-21T01:18:46;11.27;;;4.47;;
23561;SDS011;11959;49.418;8.728;2024-02-21T01:21:12;14.43;;;5.30;;
23561;SDS011;11959;49.418;8.728;2024-02-21T01:23:38;12.32;;;5.40;;
23561;SDS011;11959;49.418;8.728;2024-02-21T01:26:03;13.95;;;4.70;;
23561;SDS011;11959;49.418;8.728;2024-02-21T01:28:30;12.80;;;5.28;;
23561;SDS011;11959;49.418;8.728;2024-02-21T01:30:56;11.32;;;4.80;;
23561;SDS011;11959;49.418;8.728;2024-02-21T01:33:22;15.52;;;5.45;;
23561;SDS011;11959;49.418;8.728;2024-02-21T01:35:48;13.40;;;5.07;;
23561;SDS011;11959;49.418;8.728;2024-02-21T01:38:15;13.68;;;5.20;;
23561;SDS011;11959;49.418;8.728;2024-02-21T01:40:40;12.23;;;4.63;;
23561;SDS011;11959;49.418;8.728;2024-02-21T01:43:15;11.98;;;4.70;;
23561;SDS011;11959;49.418;8.728;2024-02-21T01:45:42;12.02;;;4.32;;
23561;SDS011;11959;49.418;8.728;2024-02-21T01:48:07;12.27;;;5.63;;
23561;SDS011;11959;49.418;8.728;2024-02-21T01:50:33;12.57;;;5.05;;
23561;SDS011;11959;49.418;8.728;2024-02-21T01:52:59;9.57;;;4.63;;
23561;SDS011;11959;49.418;8.728;2024-02-21T01:55:25;13.15;;;4.43;;
23561;SDS011;11959;49.418;8.728;2024-02-21T01:57:51;13.25;;;4.93;;
23561;SDS011;11959;49.418;8.728;2024-02-21T02:00:17;13.95;;;5.20;;
23561;SDS011;11959;49.418;8.728;2024-02-21T02:02:43;13.65;;;5.18;;
23561;SDS011;11959;49.418;8.728;2024-02-21T02:05:10;12.00;;;4.82;;
23561;SDS011;11959;49.418;8.728;2024-02-21T02:07:37;12.43;;;5.05;;
23561;SDS011;11959;49.418;8.728;2024-02-21T02:10:02;9.93;;;4.78;;
23561;SDS011;11959;49.418;8.728;2024-02-21T02:12:28;15.18;;;4.90;;
23561;SDS011;11959;49.418;8.728;2024-02-21T02:15:02;12.52;;;4.78;;
23561;SDS011;11959;49.418;8.728;2024-02-21T02:17:31;11.55;;;5.28;;
23561;SDS011;11959;49.418;8.728;2024-02-21T02:19:57;13.05;;;4.97;;
23561;SDS011;11959;49.418;8.728;2024-02-21T02:22:25;15.95;;;4.95;;
23561;SDS011;11959;49.418;8.728;2024-02-21T02:24:54;11.32;;;4.97;;
23561;SDS011;11959;49.418;8.728;2024-02-21T02:27:20;12.85;;;5.30;;
23561;SDS011;11959;49.418;8.728;2024-02-21T02:29:47;11.35;;;5.57;;
23561;SDS011;11959;49.418;8.728;2024-02-21T02:32:13;12.70;;;5.22;;
23561;SDS011;11959;49.418;8.728;2024-02-21T02:34:39;11.95;;;5.18;;
23561;SDS011;11959;49.418;8.728;2024-02-21T02:37:05;12.10;;;5.10;;
23561;SDS011;11959;49.418;8.728;2024-02-21T02:39:30;14.77;;;5.53;;
23561;SDS011;11959;49.418;8.728;2024-02-21T02:41:56;19.25;;;6.10;;
23561;SDS011;11959;49.418;8.728;2024-02-21T02:44:21;10.68;;;5.63;;
23561;SDS011;11959;49.418;8.728;2024-02-21T02:46:47;13.15;;;5.43;;
23561;SDS011;11959;49.418;8.728;2024-02-21T02:49:13;13.15;;;4.90;;
23561;SDS011;11959;49.418;8.728;2024-02-21T02:51:42;11.45;;;4.85;;
23561;SDS011;11959;49.418;8.728;2024-02-21T02:54:08;13.07;;;5.80;;
23561;SDS011;11959;49.418;8.728;2024-02-21T02:56:34;11.93;;;5.22;;
23561;SDS011;11959;49.418;8.728;2024-02-21T02:59:00;14.38;;;5.75;;
23561;SDS011;11959;49.418;8.728;2024-02-21T03:01:25;12.73;;;5.63;;
23561;SDS011;11959;49.418;8.728;2024-02-21T03:03:52;14.80;;;5.35;;
23561;SDS011;11959;49.418;8.728;2024-02-21T03:06:18;14.93;;;5.80;;
23561;SDS011;11959;49.418;8.728;2024-02-21T03:08:44;13.57;;;4.70;;
23561;SDS011;11959;49.418;8.728;2024-02-21T03:11:09;10.60;;;4.90;;
23561;SDS011;11959;49.418;8.728;2024-02-21T03:13:36;14.38;;;5.25;;
23561;SDS011;11959;49.418;8.728;2024-02-21T03:16:02;13.23;;;5.38;;
23561;SDS011;11959;49.418;8.728;2024-02-21T03:18:27;11.95;;;4.97;;
23561;SDS011;11959;49.418;8.728;2024-02-21T03:20:53;12.07;;;5.05;;
23561;SDS011;11959;49.418;8.728;2024-02-21T03:23:19;14.00;;;5.25;;
23561;SDS011;11959;49.418;8.728;2024-02-21T03:25:44;12.48;;;4.90;;
23561;SDS011;11959;49.418;8.728;2024-02-21T03:28:10;11.73;;;4.50;;
23561;SDS011;11959;49.418;8.728;2024-02-21T03:30:36;14.30;;;5.30;;
23561;SDS011;11959;49.418;8.728;2024-02-21T03:33:02;13.77;;;5.05;;
23561;SDS011;11959;49.418;8.728;2024-02-21T03:35:29;10.35;;;5.05;;
23561;SDS011;11959;49.418;8.728;2024-02-21T03:37:55;14.43;;;4.82;;
23561;SDS011;11959;49.418;8.728;2024-02-21T03:40:20;10.68;;;4.72;;
23561;SDS011;11959;49.418;8.728;2024-02-21T03:42:46;11.00;;;4.97;;
23561;SDS011;11959;49.418;8.728;2024-02-21T03:45:12;12.20;;;5.40;;
23561;SDS011;11959;49.418;8.728;2024-02-21T03:47:37;12.65;;;5.05;;
23561;SDS011;11959;49.418;8.728;2024-02-21T03:50:03;11.55;;;4.78;;
23561;SDS011;11959;49.418;8.728;2024-02-21T03:52:30;9.65;;;4.57;;
23561;SDS011;11959;49.418;8.728;2024-02-21T03:54:56;10.18;;;4.95;;
23561;SDS011;11959;49.418;8.728;2024-02-21T03:57:21;12.02;;;4.63;;
23561;SDS011;11959;49.418;8.728;2024-02-21T03:59:50;11.63;;;4.93;;
23561;SDS011;11959;49.418;8.728;2024-02-21T04:02:17;12.88;;;4.68;;
23561;SDS011;11959;49.418;8.728;2024-02-21T04:04:43;11.43;;;4.93;;
23561;SDS011;11959;49.418;8.728;2024-02-21T04:07:12;12.52;;;4.55;;
23561;SDS011;11959;49.418;8.728;2024-02-21T04:09:38;13.38;;;5.07;;
23561;SDS011;11959;49.418;8.728;2024-02-21T04:12:03;14.93;;;5.25;;
23561;SDS011;11959;49.418;8.728;2024-02-21T04:14:29;10.60;;;4.75;;
23561;SDS011;11959;49.418;8.728;2024-02-21T04:16:55;12.45;;;5.13;;
23561;SDS011;11959;49.418;8.728;2024-02-21T04:19:21;15.38;;;5.05;;
23561;SDS011;11959;49.418;8.728;2024-02-21T04:21:46;12.50;;;4.88;;
23561;SDS011;11959;49.418;8.728;2024-02-21T04:24:12;13.00;;;4.90;;
23561;SDS011;11959;49.418;8.728;2024-02-21T04:26:37;14.35;;;5.60;;
23561;SDS011;11959;49.418;8.728;2024-02-21T04:29:03;16.08;;;4.95;;
23561;SDS011;11959;49.418;8.728;2024-02-21T04:31:31;14.98;;;4.57;;
23561;SDS011;11959;49.418;8.728;2024-02-21T04:33:58;10.45;;;5.10;;
23561;SDS011;11959;49.418;8.728;2024-02-21T04:36:23;13.13;;;4.90;;
23561;SDS011;11959;49.418;8.728;2024-02-21T04:38:49;11.88;;;4.60;;
23561;SDS011;11959;49.418;8.728;2024-02-21T04:41:15;12.27;;;5.25;;
23561;SDS011;11959;49.418;8.728;2024-02-21T04:43:41;12.55;;;5.35;;
23561;SDS011;11959;49.418;8.728;2024-02-21T04:46:06;12.35;;;5.00;;
23561;SDS011;11959;49.418;8.728;2024-02-21T04:48:32;13.10;;;5.13;;
23561;SDS011;11959;49.418;8.728;2024-02-21T04:50:58;9.95;;;4.55;;
23561;SDS011;11959;49.418;8.728;2024-02-21T04:53:24;12.95;;;4.82;;
23561;SDS011;11959;49.418;8.728;2024-02-21T04:55:50;10.23;;;4.32;;
23561;SDS011;11959;49.418;8.728;2024-02-21T04:58:15;11.05;;;4.57;;
23561;SDS011;11959;49.418;8.728;2024-02-21T05:00:41;11.43;;;4.70;;
23561;SDS011;11959;49.418;8.728;2024-02-21T05:03:06;13.30;;;4.97;;
23561;SDS011;11959;49.418;8.728;2024-02-21T05:05:32;10.50;;;4.13;;
23561;SDS011;11959;49.418;8.728;2024-02-21T05:07:58;14.60;;;4.65;;
23561;SDS011;11959;49.418;8.728;2024-02-21T05:10:23;9.68;;;5.00;;
23561;SDS011;11959;49.418;8.728;2024-02-21T05:12:49;10.30;;;4.28;;
23561;SDS011;11959;49.418;8.728;2024-02-21T05:15:14;13.07;;;4.93;;
23561;SDS011;11959;49.418;8.728;2024-02-21T05:17:40;15.82;;;5.25;;
23561;SDS011;11959;49.418;8.728;2024-02-21T05:20:07;12.50;;;4.70;;
23561;SDS011;11959;49.418;8.728;2024-02-21T05:22:33;10.05;;;4.43;;
23561;SDS011;11959;49.418;8.728;2024-02-21T05:24:59;12.68;;;4.40;;
23561;SDS011;11959;49.418;8.728;2024-02-21T05:27:25;12.70;;;4.70;;
23561;SDS011;11959;49.418;8.728;2024-02-21T05:29:50;12.57;;;4.63;;
23561;SDS011;11959;49.418;8.728;2024-02-21T05:32:16;12.25;;;4.57;;
23561;SDS011;11959;49.418;8.728;2024-02-21T05:34:42;8.70;;;4.20;;
23561;SDS011;11959;49.418;8.728;2024-02-21T05:37:07;13.88;;;4.72;;
23561;SDS011;11959;49.418;8.728;2024-02-21T05:39:33;14.43;;;5.10;;
23561;SDS011;11959;49.418;8.728;2024-02-21T05:41:58;13.02;;;4.22;;
23561;SDS011;11959;49.418;8.728;2024-02-21T05:44:24;16.15;;;5.63;;
23561;SDS011;11959;49.418;8.728;2024-02-21T05:46:51;9.77;;;4.35;;
23561;SDS011;11959;49.418;8.728;2024-02-21T05:49:17;9.65;;;4.00;;
23561;SDS011;11959;49.418;8.728;2024-02-21T05:51:43;13.32;;;4.78;;
23561;SDS011;11959;49.418;8.728;2024-02-21T05:54:08;14.38;;;4.45;;
23561;SDS011;11959;49.418;8.728;2024-02-21T05:56:34;12.55;;;4.53;;
23561;SDS011;11959;49.418;8.728;2024-02-21T05:58:59;9.82;;;4.35;;
23561;SDS011;11959;49.418;8.728;2024-02-21T06:01:25;10.70;;;4.80;;
23561;SDS011;11959;49.418;8.728;2024-02-21T06:03:51;10.15;;;4.55;;
23561;SDS011;11959;49.418;8.728;2024-02-21T06:06:16;12.48;;;4.90;;
23561;SDS011;11959;49.418;8.728;2024-02-21T06:08:42;11.75;;;4.97;;
23561;SDS011;11959;49.418;8.728;2024-02-21T06:11:08;6.80;;;4.22;;
23561;SDS011;11959;49.418;8.728;2024-02-21T06:13:37;11.55;;;4.22;;
23561;SDS011;11959;49.418;8.728;2024-02-21T06:16:04;10.10;;;4.70;;
23561;SDS011;11959;49.418;8.728;2024-02-21T06:18:31;9.73;;;4.78;;
23561;SDS011;11959;49.418;8.728;2024-02-21T06:20:56;8.43;;;4.25;;
23561;SDS011;11959;49.418;8.728;2024-02-21T06:23:22;16.20;;;4.88;;
23561;SDS011;11959;49.418;8.728;2024-02-21T06:25:47;12.05;;;4.80;;
23561;SDS011;11959;49.418;8.728;2024-02-21T06:28:13;9.23;;;4.70;;
23561;SDS011;11959;49.418;8.728;2024-02-21T06:30:39;11.73;;;4.90;;
23561;SDS011;11959;49.418;8.728;2024-02-21T06:33:05;12.10;;;4.85;;
23561;SDS011;11959;49.418;8.728;2024-02-21T06:35:32;14.32;;;4.72;;
23561;SDS011;11959;49.418;8.728;2024-02-21T06:37:58;11.18;;;4.80;;
23561;SDS011;11959;49.418;8.728;2024-02-21T06:40:24;12.25;;;4.63;;
23561;SDS011;11959;49.418;8.728;2024-02-21T06:42:50;11.18;;;4.70;;
23561;SDS011;11959;49.418;8.728;2024-02-21T06:45:16;10.90;;;4.95;;
23561;SDS011;11959;49.418;8.728;2024-02-21T06:47:42;7.63;;;3.90;;
23561;SDS011;11959;49.418;8.728;2024-02-21T06:50:08;12.45;;;4.32;;
23561;SDS011;11959;49.418;8.728;2024-02-21T06:52:34;12.95;;;5.00;;
23561;SDS011;11959;49.418;8.728;2024-02-21T06:55:01;11.70;;;4.55;;
23561;SDS011;11959;49.418;8.728;2024-02-21T06:57:28;12.27;;;4.47;;
23561;SDS011;11959;49.418;8.728;2024-02-21T06:59:54;11.82;;;3.90;;
23561;SDS011;11959;49.418;8.728;2024-02-21T07:02:19;11.02;;;4.45;;
23561;SDS011;11959;49.418;8.728;2024-02-21T07:04:45;9.50;;;4.15;;
23561;SDS011;11959;49.418;8.728;2024-02-21T07:07:11;10.18;;;4.78;;
23561;SDS011;11959;49.418;8.728;2024-02-21T07:09:37;9.52;;;4.30;;
23561;SDS011;11959;49.418;8.728;2024-02-21T07:12:03;8.77;;;4.13;;
23561;SDS011;11959;49.418;8.728;2024-02-21T07:14:29;11.80;;;4.47;;
23561;SDS011;11959;49.418;8.728;2024-02-21T07:16:57;11.98;;;3.95;;
23561;SDS011;11959;49.418;8.728;2024-02-21T07:19:23;11.00;;;4.50;;
23561;SDS011;11959;49.418;8.728;2024-02-21T07:21:48;7.75;;;3.72;;
23561;SDS011;11959;49.418;8.728;2024-02-21T07:24:14;11.48;;;4.38;;
23561;SDS011;11959;49.418;8.728;2024-02-21T07:26:43;11.52;;;4.47;;
23561;SDS011;11959;49.418;8.728;2024-02-21T07:29:09;12.82;;;4.53;;
23561;SDS011;11959;49.418;8.728;2024-02-21T07:31:39;12.18;;;4.45;;
23561;SDS011;11959;49.418;8.728;2024-02-21T07:34:08;10.50;;;4.55;;
23561;SDS011;11959;49.418;8.728;2024-02-21T07:36:34;7.88;;;4.07;;
23561;SDS011;11959;49.418;8.728;2024-02-21T07:39:00;13.75;;;5.20;;
23561;SDS011;11959;49.418;8.728;2024-02-21T07:41:25;13.30;;;4.95;;
23561;SDS011;11959;49.418;8.728;2024-02-21T07:43:51;10.73;;;4.32;;
23561;SDS011;11959;49.418;8.728;2024-02-21T07:46:17;14.40;;;4.40;;
23561;SDS011;11959;49.418;8.728;2024-02-21T07:48:45;13.02;;;4.97;;
23561;SDS011;11959;49.418;8.728;2024-02-21T07:51:11;12.32;;;4.63;;
23561;SDS011;11959;49.418;8.728;2024-02-21T07:53:38;11.45;;;4.88;;
23561;SDS011;11959;49.418;8.728;2024-02-21T07:56:04;13.18;;;4.80;;
23561;SDS011;11959;49.418;8.728;2024-02-21T07:58:30;10.93;;;4.60;;
23561;SDS011;11959;49.418;8.728;2024-02-21T08:00:55;12.63;;;4.65;;
23561;SDS011;11959;49.418;8.728;2024-02-21T08:03:21;10.77;;;4.57;;
23561;SDS011;11959;49.418;8.728;2024-02-21T08:05:47;13.15;;;4.85;;
23561;SDS011;11959;49.418;8.728;2024-02-21T08:08:13;17.10;;;5.07;;
23561;SDS011;11959;49.418;8.728;2024-02-21T08:10:43;11.05;;;4.75;;
23561;SDS011;11959;49.418;8.728;2024-02-21T08:13:09;15.07;;;4.32;;
23561;SDS011;11959;49.418;8.728;2024-02-21T08:15:34;8.90;;;4.82;;
23561;SDS011;11959;49.418;8.728;2024-02-21T08:18:00;12.43;;;4.93;;
23561;SDS011;11959;49.418;8.728;2024-02-21T08:20:27;10.07;;;4.70;;
23561;SDS011;11959;49.418;8.728;2024-02-21T08:22:52;11.02;;;4.30;;
23561;SDS011;11959;49.418;8.728;2024-02-21T08:25:18;10.55;;;4.00;;
23561;SDS011;11959;49.418;8.728;2024-02-21T08:27:43;13.52;;;5.68;;
23561;SDS011;11959;49.418;8.728;2024-02-21T08:30:10;10.70;;;4.70;;
23561;SDS011;11959;49.418;8.728;2024-02-21T08:32:36;8.73;;;4.40;;
23561;SDS011;11959;49.418;8.728;2024-02-21T08:35:02;9.40;;;3.88;;
23561;SDS011;11959;49.418;8.728;2024-02-21T08:37:28;8.10;;;4.00;;
23561;SDS011;11959;49.418;8.728;2024-02-21T08:39:53;11.00;;;4.35;;
23561;SDS011;11959;49.418;8.728;2024-02-21T08:42:19;10.70;;;4.40;;
23561;SDS011;11959;49.418;8.728;2024-02-21T08:44:45;11.55;;;4.82;;
23561;SDS011;11959;49.418;8.728;2024-02-21T08:47:11;12.15;;;4.30;;
23561;SDS011;11959;49.418;8.728;2024-02-21T08:49:36;12.93;;;4.03;;
23561;SDS011;11959;49.418;8.728;2024-02-21T08:52:02;10.20;;;4.38;;
23561;SDS011;11959;49.418;8.728;2024-02-21T08:54:29;11.07;;;4.38;;
23561;SDS011;11959;49.418;8.728;2024-02-21T08:56:54;11.80;;;4.68;;
23561;SDS011;11959;49.418;8.728;2024-02-21T08:59:21;12.52;;;4.60;;
23561;SDS011;11959;49.418;8.728;2024-02-21T09:01:47;10.75;;;4.35;;
23561;SDS011;11959;49.418;8.728;2024-02-21T09:04:13;12.68;;;5.00;;
23561;SDS011;11959;49.418;8.728;2024-02-21T09:06:38;11.13;;;4.22;;
23561;SDS011;11959;49.418;8.728;2024-02-21T09:09:07;11.75;;;4.43;;
23561;SDS011;11959;49.418;8.728;2024-02-21T09:11:34;11.23;;;4.00;;
23561;SDS011;11959;49.418;8.728;2024-02-21T09:13:59;13.40;;;4.32;;
23561;SDS011;11959;49.418;8.728;2024-02-21T09:16:25;10.75;;;4.22;;
23561;SDS011;11959;49.418;8.728;2024-02-21T09:18:50;12.20;;;4.22;;
23561;SDS011;11959;49.418;8.728;2024-02-21T09:21:17;12.20;;;3.90;;
23561;SDS011;11959;49.418;8.728;2024-02-21T09:23:43;11.90;;;4.57;;
23561;SDS011;11959;49.418;8.728;2024-02-21T09:26:10;10.63;;;4.03;;
23561;SDS011;11959;49.418;8.728;2024-02-21T09:28:39;12.68;;;4.03;;
23561;SDS011;11959;49.418;8.728;2024-02-21T09:31:04;12.70;;;4.20;;
23561;SDS011;11959;49.418;8.728;2024-02-21T09:33:30;14.23;;;4.50;;
23561;SDS011;11959;49.418;8.728;2024-02-21T09:35:56;10.50;;;3.97;;
23561;SDS011;11959;49.418;8.728;2024-02-21T09:38:21;9.25;;;4.10;;
23561;SDS011;11959;49.418;8.728;2024-02-21T09:40:47;9.50;;;3.50;;
23561;SDS011;11959;49.418;8.728;2024-02-21T09:43:18;9.68;;;3.72;;
23561;SDS011;11959;49.418;8.728;2024-02-21T09:45:46;9.63;;;3.60;;
23561;SDS011;11959;49.418;8.728;2024-02-21T09:51:07;9.23;;;3.88;;
23561;SDS011;11959;49.418;8.728;2024-02-21T09:53:36;10.48;;;3.63;;
23561;SDS011;11959;49.418;8.728;2024-02-21T09:56:03;11.15;;;3.70;;
23561;SDS011;11959;49.418;8.728;2024-02-21T09:58:32;11.60;;;3.83;;
23561;SDS011;11959;49.418;8.728;2024-02-21T10:00:59;9.63;;;2.90;;
23561;SDS011;11959;49.418;8.728;2024-02-21T10:03:25;8.18;;;3.45;;
23561;SDS011;11959;49.418;8.728;2024-02-21T10:05:51;8.32;;;3.75;;
23561;SDS011;11959;49.418;8.728;2024-02-21T10:08:16;10.35;;;3.70;;
23561;SDS011;11959;49.418;8.728;2024-02-21T10:10:43;10.13;;;3.30;;
23561;SDS011;11959;49.418;8.728;2024-02-21T10:13:10;7.97;;;3.40;;
23561;SDS011;11959;49.418;8.728;2024-02-21T10:15:36;11.18;;;3.40;;
23561;SDS011;11959;49.418;8.728;2024-02-21T10:18:02;8.05;;;3.17;;
23561;SDS011;11959;49.418;8.728;2024-02-21T10:20:28;10.48;;;3.25;;
23561;SDS011;11959;49.418;8.728;2024-02-21T10:23:01;8.65;;;3.33;;
23561;SDS011;11959;49.418;8.728;2024-02-21T10:25:28;11.10;;;3.38;;
23561;SDS011;11959;49.418;8.728;2024-02-21T10:27:54;8.63;;;3.28;;
23561;SDS011;11959;49.418;8.728;2024-02-21T10:30:20;8.85;;;3.72;;
23561;SDS011;11959;49.418;8.728;2024-02-21T10:32:50;10.90;;;3.78;;
23561;SDS011;11959;49.418;8.728;2024-02-21T10:35:25;10.45;;;3.90;;
23561;SDS011;11959;49.418;8.728;2024-02-21T10:37:56;11.63;;;3.60;;
23561;SDS011;11959;49.418;8.728;2024-02-21T10:40:25;9.05;;;3.13;;
23561;SDS011;11959;49.418;8.728;2024-02-21T10:42:56;7.72;;;3.42;;
23561;SDS011;11959;49.418;8.728;2024-02-21T10:45:25;8.77;;;3.63;;
23561;SDS011;11959;49.418;8.728;2024-02-21T10:48:22;7.82;;;2.97;;
23561;SDS011;11959;49.418;8.728;2024-02-21T10:50:57;10.32;;;3.22;;
23561;SDS011;11959;49.418;8.728;2024-02-21T10:56:06;9.38;;;3.38;;
23561;SDS011;11959;49.418;8.728;2024-02-21T10:58:49;8.77;;;3.67;;
23561;SDS011;11959;49.418;8.728;2024-02-21T11:01:16;7.80;;;3.25;;
23561;SDS011;11959;49.418;8.728;2024-02-21T11:03:44;9.30;;;3.78;;
23561;SDS011;11959;49.418;8.728;2024-02-21T11:06:11;11.32;;;3.38;;
23561;SDS011;11959;49.418;8.728;2024-02-21T11:08:38;7.32;;;2.92;;
23561;SDS011;11959;49.418;8.728;2024-02-21T11:11:04;10.07;;;3.28;;
23561;SDS011;11959;49.418;8.728;2024-02-21T11:13:37;7.63;;;3.15;;
23561;SDS011;11959;49.418;8.728;2024-02-21T11:16:09;6.80;;;2.63;;
23561;SDS011;11959;49.418;8.728;2024-02-21T11:18:36;9.98;;;3.03;;
23561;SDS011;11959;49.418;8.728;2024-02-21T11:21:02;7.28;;;3.50;;
23561;SDS011;11959;49.418;8.728;2024-02-21T11:23:31;9.27;;;2.95;;
23561;SDS011;11959;49.418;8.728;2024-02-21T11:26:03;11.13;;;3.30;;
23561;SDS011;11959;49.418;8.728;2024-02-21T11:28:33;10.68;;;3.75;;
23561;SDS011;11959;49.418;8.728;2024-02-21T11:31:12;9.40;;;3.40;;
23561;SDS011;11959;49.418;8.728;2024-02-21T11:33:39;11.75;;;2.90;;
23561;SDS011;11959;49.418;8.728;2024-02-21T11:36:08;13.88;;;3.22;;
23561;SDS011;11959;49.418;8.728;2024-02-21T11:38:35;6.88;;;2.70;;
23561;SDS011;11959;49.418;8.728;2024-02-21T11:41:00;9.40;;;2.85;;
23561;SDS011;11959;49.418;8.728;2024-02-21T11:43:26;7.60;;;2.85;;
23561;SDS011;11959;49.418;8.728;2024-02-21T11:46:01;7.25;;;2.45;;
23561;SDS011;11959;49.418;8.728;2024-02-21T11:48:31;7.78;;;2.25;;
23561;SDS011;11959;49.418;8.728;2024-02-21T11:50:57;7.13;;;2.38;;
23561;SDS011;11959;49.418;8.728;2024-02-21T11:53:23;7.70;;;2.35;;
23561;SDS011;11959;49.418;8.728;2024-02-21T11:55:49;9.15;;;2.35;;
23561;SDS011;11959;49.418;8.728;2024-02-21T11:58:15;8.57;;;3.00;;
23561;SDS011;11959;49.418;8.728;2024-02-21T12:00:41;10.63;;;2.70;;
23561;SDS011;11959;49.418;8.728;2024-02-21T12:03:07;8.27;;;2.42;;
23561;SDS011;11959;49.418;8.728;2024-02-21T12:05:33;11.68;;;2.60;;
23561;SDS011;11959;49.418;8.728;2024-02-21T12:07:59;8.00;;;2.75;;
23561;SDS011;11959;49.418;8.728;2024-02-21T12:10:26;9.48;;;2.67;;
23561;SDS011;11959;49.418;8.728;2024-02-21T12:13:04;7.70;;;2.70;;
23561;SDS011;11959;49.418;8.728;2024-02-21T12:15:31;9.85;;;3.58;;
23561;SDS011;11959;49.418;8.728;2024-02-21T12:17:57;7.43;;;2.47;;
23561;SDS011;11959;49.418;8.728;2024-02-21T12:20:23;6.78;;;2.70;;
23561;SDS011;11959;49.418;8.728;2024-02-21T12:22:50;7.05;;;2.78;;
23561;SDS011;11959;49.418;8.728;2024-02-21T12:25:21;9.07;;;2.65;;
23561;SDS011;11959;49.418;8.728;2024-02-21T12:27:47;7.72;;;2.47;;
23561;SDS011;11959;49.418;8.728;2024-02-21T12:30:14;10.70;;;3.08;;
23561;SDS011;11959;49.418;8.728;2024-02-21T12:32:40;8.55;;;2.35;;
23561;SDS011;11959;49.418;8.728;2024-02-21T12:35:06;7.38;;;2.80;;
23561;SDS011;11959;49.418;8.728;2024-02-21T12:37:32;8.63;;;2.60;;
23561;SDS011;11959;49.418;8.728;2024-02-21T12:39:58;7.57;;;2.42;;
23561;SDS011;11959;49.418;8.728;2024-02-21T12:42:24;5.50;;;2.30;;
23561;SDS011;11959;49.418;8.728;2024-02-21T12:44:51;7.30;;;2.70;;
23561;SDS011;11959;49.418;8.728;2024-02-21T12:47:19;11.02;;;2.80;;
23561;SDS011;11959;49.418;8.728;2024-02-21T12:49:48;7.28;;;2.05;;
23561;SDS011;11959;49.418;8.728;2024-02-21T12:52:14;9.05;;;3.08;;
23561;SDS011;11959;49.418;8.728;2024-02-21T12:54:40;7.72;;;2.45;;
23561;SDS011;11959;49.418;8.728;2024-02-21T12:57:07;8.02;;;2.35;;
23561;SDS011;11959;49.418;8.728;2024-02-21T12:59:33;7.22;;;2.72;;
23561;SDS011;11959;49.418;8.728;2024-02-21T13:01:59;6.85;;;2.33;;
23561;SDS011;11959;49.418;8.728;2024-02-21T13:04:24;6.32;;;2.20;;
23561;SDS011;11959;49.418;8.728;2024-02-21T13:06:50;6.65;;;2.35;;
23561;SDS011;11959;49.418;8.728;2024-02-21T13:09:16;5.40;;;2.25;;
23561;SDS011;11959;49.418;8.728;2024-02-21T13:11:41;8.20;;;2.42;;
23561;SDS011;11959;49.418;8.728;2024-02-21T13:14:09;9.73;;;2.58;;
23561;SDS011;11959;49.418;8.728;2024-02-21T13:16:35;7.82;;;2.33;;
23561;SDS011;11959;49.418;8.728;2024-02-21T13:19:04;5.38;;;2.38;;
23561;SDS011;11959;49.418;8.728;2024-02-21T13:21:30;4.38;;;2.10;;
23561;SDS011;11959;49.418;8.728;2024-02-21T13:23:56;5.40;;;2.40;;
23561;SDS011;11959;49.418;8.728;2024-02-21T13:26:22;8.35;;;2.78;;
23561;SDS011;11959;49.418;8.728;2024-02-21T13:28:47;7.78;;;2.45;;
23561;SDS011;11959;49.418;8.728;2024-02-21T13:31:14;5.47;;;2.00;;
23561;SDS011;11959;49.418;8.728;2024-02-21T13:33:41;7.43;;;2.20;;
23561;SDS011;11959;49.418;8.728;2024-02-21T13:36:09;8.18;;;2.28;;
23561;SDS011;11959;49.418;8.728;2024-02-21T13:38:35;6.60;;;2.03;;
23561;SDS011;11959;49.418;8.728;2024-02-21T13:41:00;5.80;;;2.28;;
23561;SDS011;11959;49.418;8.728;2024-02-21T13:43:26;9.32;;;2.45;;
23561;SDS011;11959;49.418;8.728;2024-02-21T13:45:55;6.93;;;2.25;;
23561;SDS011;11959;49.418;8.728;2024-02-21T13:48:25;7.70;;;2.50;;
23561;SDS011;11959;49.418;8.728;2024-02-21T13:50:51;8.63;;;2.28;;
23561;SDS011;11959;49.418;8.728;2024-02-21T13:53:17;5.13;;;1.70;;
23561;SDS011;11959;49.418;8.728;2024-02-21T13:55:44;6.60;;;2.13;;
23561;SDS011;11959;49.418;8.728;2024-02-21T13:58:10;8.52;;;2.25;;
23561;SDS011;11959;49.418;8.728;2024-02-21T14:00:36;7.03;;;2.38;;
23561;SDS011;11959;49.418;8.728;2024-02-21T14:03:02;8.75;;;2.08;;
23561;SDS011;11959;49.418;8.728;2024-02-21T14:05:28;5.40;;;1.98;;
23561;SDS011;11959;49.418;8.728;2024-02-21T14:07:53;5.75;;;1.80;;
23561;SDS011;11959;49.418;8.728;2024-02-21T14:10:22;7.80;;;2.13;;
23561;SDS011;11959;49.418;8.728;2024-02-21T14:12:48;6.65;;;1.70;;
23561;SDS011;11959;49.418;8.728;2024-02-21T14:15:14;6.45;;;1.70;;
23561;SDS011;11959;49.418;8.728;2024-02-21T14:17:41;5.38;;;2.00;;
23561;SDS011;11959;49.418;8.728;2024-02-21T14:20:07;4.28;;;1.92;;
23561;SDS011;11959;49.418;8.728;2024-02-21T14:22:33;4.82;;;1.80;;
23561;SDS011;11959;49.418;8.728;2024-02-21T14:24:59;4.88;;;1.92;;
23561;SDS011;11959;49.418;8.728;2024-02-21T14:27:25;4.80;;;2.03;;
23561;SDS011;11959;49.418;8.728;2024-02-21T14:29:51;5.43;;;2.20;;
23561;SDS011;11959;49.418;8.728;2024-02-21T14:32:18;5.80;;;2.00;;
23561;SDS011;11959;49.418;8.728;2024-02-21T14:34:45;3.03;;;1.63;;
23561;SDS011;11959;49.418;8.728;2024-02-21T14:37:10;5.07;;;2.15;;
23561;SDS011;11959;49.418;8.728;2024-02-21T14:39:36;5.30;;;1.73;;